Time;durP1;ratioP1;P1;durP2;ratioP2;P2;SDS_P1;SDS_P2;PMS_P1;PMS_P2;Temp;Humidity;BMP_temperature;BMP_pressure;BME280_temperature;BME280_humidity;BME280_pressure;Samples;Min_cycle;Max_cycle;Signal;HPM_P1;HPM_P2
2022/06/17 00:01:21;;;;;;;;;;;;;;;22.58;83.83;99720.84;5023961;28;19920;-53
2022/06/17 00:03:48;;;;;;;;;;;;;;;22.80;85.23;99720.13;5041763;28;20520;-53
2022/06/17 00:06:13;;;;;;;;;;;;;;;22.80;87.29;99728.00;5042667;28;19921;-53
2022/06/17 00:08:40;;;;;;;;;;;;;;;23.08;86.46;99739.19;5047067;28;19931;-53
2022/06/17 00:11:17;;;;;;;;;;;;;;;23.25;87.45;99738.81;5044921;28;20357;-53
2022/06/17 00:13:42;;;;;;;;;;;;;;;22.96;89.96;99746.97;5045952;28;19920;-53
2022/06/17 00:16:11;;;;;;;;;;;;;;;23.43;87.45;99741.06;5046171;28;19928;-54
2022/06/17 00:18:36;;;;;;;;;;;;;;;23.77;85.04;99740.25;5045989;28;19921;-53
2022/06/17 00:21:02;;;;;;;;;;;;;;;23.75;84.61;99742.16;5026124;28;19921;-52
2022/06/17 00:23:27;;;;;;;;;;;;;;;23.87;84.58;99736.94;5046662;28;19921;-53
2022/06/17 00:25:52;;;;;;;;;;;;;;;23.69;84.86;99734.69;5046058;28;20004;-54
2022/06/17 00:28:19;;;;;;;;;;;;;;;23.51;87.16;99736.91;5028012;28;19971;-53
2022/06/17 00:30:46;;;;;;;;;;;;;;;23.47;87.35;99740.72;5043170;28;20332;-53
2022/06/17 00:33:12;;;;;;;;;;;;;;;23.41;86.97;99735.09;5045296;28;19921;-53
2022/06/17 00:35:42;;;;;;;;;;;;;;;23.15;88.59;99740.47;5046822;28;19924;-53
2022/06/17 00:38:18;;;;;;;;;;;;;;;23.47;86.96;99734.59;5028539;28;20896;-54
2022/06/17 00:40:44;;;;;;;;;;;;;;;23.16;87.53;99740.31;5025935;28;19927;-55
2022/06/17 00:43:27;;;;;;;;;;;;;;;23.27;87.40;99731.66;5028193;28;19921;-54
2022/06/17 00:45:55;;;;;;;;;;;;;;;23.49;86.12;99724.81;5046599;28;19920;-53
2022/06/17 00:48:21;;;;;;;;;;;;;;;23.49;85.56;99724.81;5030180;28;20352;-53
2022/06/17 00:50:54;;;;;;;;;;;;;;;23.46;85.91;99730.31;5047674;28;19924;-52
2022/06/17 00:53:20;;;;;;;;;;;;;;;23.28;86.76;99738.59;5027022;28;20011;-53
2022/06/17 00:55:48;;;;;;;;;;;;;;;23.11;88.67;99736.38;5027972;28;20076;-54
2022/06/17 00:58:22;;;;;;;;;;;;;;;23.21;88.71;99740.00;5029903;28;19936;-53
2022/06/17 01:00:48;;;;;;;;;;;;;;;23.51;87.25;99744.78;5025189;28;19916;-53
2022/06/17 01:03:15;;;;;;;;;;;;;;;23.61;85.96;99744.97;5026835;28;19932;-54
2022/06/17 01:05:45;;;;;;;;;;;;;;;23.65;85.63;99746.41;5045120;28;20822;-50
2022/06/17 01:09:57;;;;;;;;;;;;;;;23.47;86.74;99726.72;5029789;28;19920;-53
2022/06/17 01:11:05;;;;;;;;;;;;;;;23.08;86.92;99732.19;5028337;28;19925;-54
2022/06/17 01:13:31;;;;;;;;;;;;;;;22.93;88.99;99720.94;5044771;28;19982;-54
2022/06/17 01:15:56;;;;;;;;;;;;;;;23.19;86.82;99718.25;5024412;28;19920;-52
2022/06/17 01:18:21;;;;;;;;;;;;;;;23.30;85.73;99718.28;5044050;28;20566;-54
2022/06/17 01:20:46;;;;;;;;;;;;;;;23.19;85.09;99710.34;5024654;28;20123;-53
2022/06/17 01:23:12;;;;;;;;;;;;;;;23.10;84.56;99711.03;5027210;28;19997;-52
2022/06/17 01:25:40;;;;;;;;;;;;;;;23.05;84.22;99707.91;5042946;28;19921;-52
2022/06/17 01:28:06;;;;;;;;;;;;;;;23.16;82.77;99710.59;5046156;28;20424;-53
2022/06/17 01:30:31;;;;;;;;;;;;;;;22.90;83.05;99710.66;5042301;28;19929;-53
2022/06/17 01:33:15;;;;;;;;;;;;;;;23.04;83.96;99706.25;5044468;28;19981;-54
2022/06/17 01:35:44;;;;;;;;;;;;;;;22.95;84.40;99705.91;5042816;28;19932;-54
2022/06/17 01:38:09;;;;;;;;;;;;;;;22.72;85.75;99717.25;5023994;28;19917;-54
2022/06/17 01:40:34;;;;;;;;;;;;;;;22.62;86.59;99708.31;5025005;28;19927;-53
2022/06/17 01:43:00;;;;;;;;;;;;;;;22.65;87.10;99715.97;5042845;28;20503;-55
2022/06/17 01:45:25;;;;;;;;;;;;;;;22.61;86.82;99711.91;5024059;28;20277;-53
2022/06/17 01:47:51;;;;;;;;;;;;;;;22.43;88.43;99725.38;5046845;28;19920;-54
2022/06/17 01:50:17;;;;;;;;;;;;;;;22.69;86.63;99720.91;5026891;28;19925;-50
2022/06/17 01:52:51;;;;;;;;;;;;;;;22.55;86.63;99727.13;5024838;28;20332;-52
2022/06/17 01:55:32;;;;;;;;;;;;;;;22.68;86.52;99731.53;5026809;28;19920;-52
2022/06/17 01:58:07;;;;;;;;;;;;;;;22.62;86.38;99734.56;4978454;28;1812478;-54
2022/06/17 02:00:32;;;;;;;;;;;;;;;22.45;85.19;99741.84;5025880;28;19938;-54
2022/06/17 02:03:03;;;;;;;;;;;;;;;22.11;86.49;99738.88;5026757;28;20750;-54
2022/06/17 02:05:28;;;;;;;;;;;;;;;21.99;85.62;99733.66;5025192;28;20421;-54
2022/06/17 02:07:54;;;;;;;;;;;;;;;22.19;86.69;99733.13;5043031;28;19916;-54
2022/06/17 02:10:23;;;;;;;;;;;;;;;22.02;87.66;99736.88;5026244;28;20001;-53
2022/06/17 02:12:49;;;;;;;;;;;;;;;22.04;87.43;99731.53;5026114;28;19947;-53
2022/06/17 02:15:14;;;;;;;;;;;;;;;22.21;86.41;99738.25;5044452;28;20011;-55
2022/06/17 02:17:41;;;;;;;;;;;;;;;22.05;86.67;99736.66;5044176;28;20035;-54
2022/06/17 02:20:07;;;;;;;;;;;;;;;22.02;86.33;99715.91;5045662;28;20380;-54
2022/06/17 02:22:32;;;;;;;;;;;;;;;22.03;86.23;99714.97;5041031;28;20015;-53
2022/06/17 02:25:03;;;;;;;;;;;;;;;22.22;85.45;99719.81;5026672;28;19928;-53
2022/06/17 02:27:29;;;;;;;;;;;;;;;22.10;85.83;99720.63;5042090;28;19920;-54
2022/06/17 02:29:54;;;;;;;;;;;;;;;21.90;85.21;99720.19;5024715;28;20335;-54
2022/06/17 02:32:19;;;;;;;;;;;;;;;21.81;86.46;99722.59;5043898;28;19927;-54
2022/06/17 02:35:05;;;;;;;;;;;;;;;21.84;87.21;99725.84;5027664;28;19920;-52
2022/06/17 02:37:30;;;;;;;;;;;;;;;21.88;86.42;99724.69;5011776;28;19928;-53
2022/06/17 02:39:56;;;;;;;;;;;;;;;21.84;86.09;99725.84;5025328;28;19925;-53
2022/06/17 02:42:32;;;;;;;;;;;;;;;21.46;87.93;99728.38;5045268;28;19996;-55
2022/06/17 02:44:58;;;;;;;;;;;;;;;21.63;87.64;99732.53;5025499;28;19920;-53
2022/06/17 02:47:23;;;;;;;;;;;;;;;21.59;87.34;99741.53;5046447;28;20391;-53
2022/06/17 02:49:49;;;;;;;;;;;;;;;21.70;87.11;99729.41;5027078;28;19924;-53
2022/06/17 02:52:18;;;;;;;;;;;;;;;21.77;86.99;99740.31;5045385;28;19920;-53
2022/06/17 02:54:48;;;;;;;;;;;;;;;22.01;85.91;99731.72;5026498;28;19921;-54
2022/06/17 02:57:18;;;;;;;;;;;;;;;21.79;84.55;99732.34;5024416;28;19927;-54
2022/06/17 02:59:48;;;;;;;;;;;;;;;21.85;85.99;99729.31;5024219;28;19921;-54
2022/06/17 03:02:25;;;;;;;;;;;;;;;21.86;86.79;99731.00;5027370;28;19921;-55
2022/06/17 03:04:50;;;;;;;;;;;;;;;21.91;86.03;99731.53;5025291;28;19927;-53
2022/06/17 03:07:16;;;;;;;;;;;;;;;21.77;86.67;99729.00;5044275;28;19920;-54
2022/06/17 03:09:41;;;;;;;;;;;;;;;21.58;87.04;99732.00;5024065;28;19928;-53
2022/06/17 03:12:13;;;;;;;;;;;;;;;21.52;87.45;99739.31;5043600;28;20809;-51
2022/06/17 03:14:44;;;;;;;;;;;;;;;21.74;87.95;99735.28;5042490;28;19921;-54
2022/06/17 03:17:11;;;;;;;;;;;;;;;21.76;87.67;99732.53;5027116;28;19965;-53
2022/06/17 03:19:36;;;;;;;;;;;;;;;21.60;88.48;99733.59;5041238;28;20834;-54
2022/06/17 03:22:05;;;;;;;;;;;;;;;21.74;87.99;99739.69;5045039;28;19927;-55
2022/06/17 03:24:34;;;;;;;;;;;;;;;21.83;88.03;99734.66;5008588;28;20331;-53
2022/06/17 03:27:04;;;;;;;;;;;;;;;21.82;88.17;99732.13;5022217;28;20408;-53
2022/06/17 03:29:29;;;;;;;;;;;;;;;21.63;87.70;99738.59;5022098;28;19921;-53
2022/06/17 03:32:02;;;;;;;;;;;;;;;21.62;89.16;99742.19;5021645;28;20029;-55
2022/06/17 03:34:36;;;;;;;;;;;;;;;21.67;89.65;99744.50;5025461;28;19925;-54
2022/06/17 03:37:08;;;;;;;;;;;;;;;21.56;90.28;99747.81;5025715;28;19947;-54
2022/06/17 03:39:34;;;;;;;;;;;;;;;21.67;89.39;99739.25;5025180;28;19995;-54
2022/06/17 03:42:10;;;;;;;;;;;;;;;21.69;88.55;99743.47;5041689;28;21044;-53
2022/06/17 03:44:41;;;;;;;;;;;;;;;21.51;89.51;99742.06;5024576;28;20431;-53
2022/06/17 03:47:17;;;;;;;;;;;;;;;21.88;88.95;99734.34;5024135;28;19928;-52
2022/06/17 03:49:56;;;;;;;;;;;;;;;21.70;88.36;99734.63;5025024;28;20396;-54
2022/06/17 03:52:44;;;;;;;;;;;;;;;21.86;87.24;99734.44;5023170;28;19998;-55
2022/06/17 03:55:13;;;;;;;;;;;;;;;21.84;88.73;99738.97;5030973;28;19921;-54
2022/06/17 03:57:39;;;;;;;;;;;;;;;21.72;89.50;99742.41;5041440;28;19991;-55
2022/06/17 04:00:04;;;;;;;;;;;;;;;21.71;88.14;99736.34;5038141;28;19928;-55
2022/06/17 04:02:29;;;;;;;;;;;;;;;21.36;87.18;99729.91;5023687;28;19928;-54
2022/06/17 04:04:55;;;;;;;;;;;;;;;21.56;89.45;99737.34;5026001;28;19927;-54
2022/06/17 04:07:20;;;;;;;;;;;;;;;21.95;88.42;99738.25;5022910;28;19962;-54
2022/06/17 04:09:46;;;;;;;;;;;;;;;22.11;87.58;99743.28;5040980;28;19928;-55
2022/06/17 04:12:11;;;;;;;;;;;;;;;22.01;87.39;99740.47;5040371;28;20440;-54
2022/06/17 04:14:57;;;;;;;;;;;;;;;22.08;86.85;99733.84;5040716;28;19920;-55
2022/06/17 04:17:28;;;;;;;;;;;;;;;21.76;85.31;99737.78;5041057;28;20017;-53
2022/06/17 04:20:13;;;;;;;;;;;;;;;22.59;86.37;99734.81;5023468;28;19921;-54
2022/06/17 04:22:39;;;;;;;;;;;;;;;22.28;84.12;99734.28;5042127;28;20015;-55
2022/06/17 04:25:05;;;;;;;;;;;;;;;22.18;86.12;99743.72;5021386;28;19920;-55
2022/06/17 04:27:56;;;;;;;;;;;;;;;22.62;86.26;99743.28;5042334;28;20519;-53
2022/06/17 04:30:22;;;;;;;;;;;;;;;22.41;86.30;99756.13;5039352;28;20408;-53
2022/06/17 04:32:47;;;;;;;;;;;;;;;22.94;84.36;99748.03;5023987;28;20160;-54
2022/06/17 04:35:13;;;;;;;;;;;;;;;22.62;84.90;99753.78;5023774;28;19953;-53
2022/06/17 04:37:38;;;;;;;;;;;;;;;22.67;83.38;99745.56;5044581;28;19920;-55
2022/06/17 04:40:03;;;;;;;;;;;;;;;22.19;83.63;99746.25;5022448;28;19921;-55
2022/06/17 04:42:33;;;;;;;;;;;;;;;22.29;84.91;99746.47;5042598;28;20011;-55
2022/06/17 04:44:58;;;;;;;;;;;;;;;22.59;85.86;99748.75;5025720;28;19938;-56
2022/06/17 04:47:24;;;;;;;;;;;;;;;22.47;82.51;99755.72;5040829;28;20396;-55
2022/06/17 04:49:50;;;;;;;;;;;;;;;23.38;83.48;99752.75;5023912;28;20414;-53
2022/06/17 04:52:18;;;;;;;;;;;;;;;23.44;79.78;99759.34;5024629;28;19921;-55
2022/06/17 04:54:43;;;;;;;;;;;;;;;23.58;81.25;99761.81;5046984;28;19921;-54
2022/06/17 04:57:09;;;;;;;;;;;;;;;23.09;82.63;99757.50;5027769;28;19921;-54
2022/06/17 04:59:35;;;;;;;;;;;;;;;23.45;80.44;99747.06;5046885;28;19920;-53
2022/06/17 05:02:01;;;;;;;;;;;;;;;23.65;76.60;99743.78;5046307;28;19979;-55
2022/06/17 05:04:27;;;;;;;;;;;;;;;24.12;78.99;99755.16;5026103;28;20429;-55
2022/06/17 05:06:52;;;;;;;;;;;;;;;23.89;76.39;99758.72;5046034;28;20352;-53
2022/06/17 05:09:22;;;;;;;;;;;;;;;23.98;73.51;99758.00;5044894;28;20352;-55
2022/06/17 05:11:48;;;;;;;;;;;;;;;24.36;75.53;99762.16;5012628;28;20458;-55
2022/06/17 05:14:13;;;;;;;;;;;;;;;24.12;75.61;99759.59;5046612;28;20050;-56
2022/06/17 05:16:38;;;;;;;;;;;;;;;23.61;74.79;99760.75;5045788;28;19940;-55
2022/06/17 05:19:03;;;;;;;;;;;;;;;23.31;73.79;99767.28;5041580;28;19932;-54
2022/06/17 05:21:28;;;;;;;;;;;;;;;23.15;76.68;99764.09;5044535;28;19925;-56
2022/06/17 05:23:55;;;;;;;;;;;;;;;23.52;79.69;99758.78;5048295;28;19920;-54
2022/06/17 05:26:21;;;;;;;;;;;;;;;23.72;76.75;99745.00;5028688;28;20284;-56
2022/06/17 05:28:47;;;;;;;;;;;;;;;23.58;76.53;99737.28;5046699;28;19920;-55
2022/06/17 05:31:16;;;;;;;;;;;;;;;24.36;72.00;99741.91;5043503;28;19979;-56
2022/06/17 05:33:42;;;;;;;;;;;;;;;24.27;71.87;99747.03;5027665;28;19925;-56
2022/06/17 05:36:07;;;;;;;;;;;;;;;24.82;68.82;99742.75;5048077;28;19974;-57
2022/06/17 05:38:32;;;;;;;;;;;;;;;23.87;71.86;99757.97;5027180;28;19924;-56
2022/06/17 05:40:58;;;;;;;;;;;;;;;24.67;68.71;99744.81;5043961;28;20390;-56
2022/06/17 05:43:23;;;;;;;;;;;;;;;24.61;69.33;99756.66;5047563;28;19940;-55
2022/06/17 05:45:48;;;;;;;;;;;;;;;24.75;73.54;99754.75;5046431;28;20930;-54
2022/06/17 05:48:14;;;;;;;;;;;;;;;24.82;74.20;99758.56;5043826;28;19920;-52
2022/06/17 05:50:39;;;;;;;;;;;;;;;24.97;73.52;99759.13;5040225;28;19940;-56
2022/06/17 05:53:05;;;;;;;;;;;;;;;25.08;70.88;99755.66;5045238;28;19977;-56
2022/06/17 05:55:31;;;;;;;;;;;;;;;25.00;70.29;99759.75;5042344;28;19920;-57
2022/06/17 05:57:57;;;;;;;;;;;;;;;25.87;71.75;99769.44;5041435;28;19935;-57
2022/06/17 06:00:23;;;;;;;;;;;;;;;24.88;70.96;99771.25;5044243;28;19920;-55
2022/06/17 06:02:48;;;;;;;;;;;;;;;24.59;74.55;99779.66;5045698;28;19920;-56
2022/06/17 06:05:16;;;;;;;;;;;;;;;25.00;73.31;99783.47;5041982;28;19966;-56
2022/06/17 06:07:41;;;;;;;;;;;;;;;25.57;73.53;99775.44;5043430;28;19959;-56
2022/06/17 06:10:08;;;;;;;;;;;;;;;25.07;73.75;99775.06;5043504;28;20015;-56
2022/06/17 06:15:18;;;;;;;;;;;;;;;25.86;67.89;99758.03;5042960;28;20408;-57
2022/06/17 06:17:46;;;;;;;;;;;;;;;25.82;69.06;99759.22;5044788;28;19925;-57
2022/06/17 06:20:12;;;;;;;;;;;;;;;25.90;69.02;99760.41;5044431;28;19975;-56
2022/06/17 06:22:37;;;;;;;;;;;;;;;26.44;69.17;99773.38;5043028;28;20004;-56
2022/06/17 06:25:03;;;;;;;;;;;;;;;26.64;70.15;99787.53;5045849;28;19931;-57
2022/06/17 06:27:28;;;;;;;;;;;;;;;27.29;64.39;99774.78;5044134;28;19918;-57
2022/06/17 06:29:53;;;;;;;;;;;;;;;27.89;64.34;99782.59;5042591;28;19932;-57
2022/06/17 06:32:18;;;;;;;;;;;;;;;27.83;64.64;99777.03;5044102;28;20297;-57
2022/06/17 06:34:43;;;;;;;;;;;;;;;27.64;66.49;99776.06;5042879;28;20325;-57
2022/06/17 06:37:09;;;;;;;;;;;;;;;27.04;62.33;99772.63;5048625;28;20011;-57
2022/06/17 06:39:34;;;;;;;;;;;;;;;27.61;63.83;99773.69;5042663;28;19956;-57
2022/06/17 06:41:59;;;;;;;;;;;;;;;28.01;58.74;99774.50;5043614;28;19921;-56
2022/06/17 06:44:24;;;;;;;;;;;;;;;27.95;61.45;99789.16;5044713;28;19974;-57
2022/06/17 06:46:50;;;;;;;;;;;;;;;28.22;56.31;99780.47;5042115;28;20314;-57
2022/06/17 06:49:15;;;;;;;;;;;;;;;27.20;62.05;99787.97;5043959;28;19921;-58
2022/06/17 06:51:40;;;;;;;;;;;;;;;27.85;62.96;99783.91;5043195;28;19940;-56
2022/06/17 06:54:06;;;;;;;;;;;;;;;28.68;59.19;99776.16;5040936;28;19921;-57
2022/06/17 06:56:31;;;;;;;;;;;;;;;28.43;58.90;99784.75;5042852;28;19924;-57
2022/06/17 06:58:56;;;;;;;;;;;;;;;28.00;58.80;99780.81;5044123;28;20629;-57
2022/06/17 07:01:21;;;;;;;;;;;;;;;27.81;60.25;99779.81;5041001;28;20615;-57
2022/06/17 07:03:47;;;;;;;;;;;;;;;28.12;59.57;99771.69;5041342;28;19960;-57
2022/06/17 07:06:12;;;;;;;;;;;;;;;28.02;59.12;99770.91;5040456;28;20040;-57
2022/06/17 07:08:37;;;;;;;;;;;;;;;27.79;59.37;99770.34;5042126;28;19931;-57
2022/06/17 07:11:03;;;;;;;;;;;;;;;27.33;61.37;99770.06;5041221;28;19951;-56
2022/06/17 07:13:29;;;;;;;;;;;;;;;27.44;60.80;99767.31;5040366;28;19927;-58
2022/06/17 07:15:55;;;;;;;;;;;;;;;28.25;59.96;99772.22;5039919;28;19920;-57
2022/06/17 07:18:21;;;;;;;;;;;;;;;28.80;56.17;99775.97;5026743;28;20121;-57
2022/06/17 07:20:48;;;;;;;;;;;;;;;29.05;57.51;99767.28;5043599;28;19988;-57
2022/06/17 07:23:15;;;;;;;;;;;;;;;29.63;51.79;99765.22;5040316;28;19990;-57
2022/06/17 07:25:40;;;;;;;;;;;;;;;29.55;54.24;99766.81;5040748;28;20408;-57
2022/06/17 07:28:05;;;;;;;;;;;;;;;28.31;53.26;99773.50;5041274;28;19924;-57
2022/06/17 07:30:32;;;;;;;;;;;;;;;27.90;54.62;99778.19;5042963;28;20844;-57
2022/06/17 07:32:57;;;;;;;;;;;;;;;27.15;54.20;99769.03;5021930;28;19928;-57
2022/06/17 07:35:22;;;;;;;;;;;;;;;27.90;55.86;99767.59;5040704;28;19920;-57
2022/06/17 07:40:31;;;;;;;;;;;;;;;29.15;51.15;99759.31;5040492;28;19935;-58
2022/06/17 07:42:57;;;;;;;;;;;;;;;29.96;48.69;99753.06;5043242;28;19921;-57
2022/06/17 07:45:24;;;;;;;;;;;;;;;30.42;43.20;99743.06;5041164;28;19917;-57
2022/06/17 07:47:49;;;;;;;;;;;;;;;30.09;42.49;99755.31;5044248;28;19916;-58
2022/06/17 07:50:16;;;;;;;;;;;;;;;30.93;43.11;99756.41;5024512;28;19997;-57
2022/06/17 07:52:41;;;;;;;;;;;;;;;30.15;44.79;99749.34;5042170;28;19916;-57
2022/06/17 07:55:07;;;;;;;;;;;;;;;29.19;47.15;99756.22;5023755;28;19920;-57
2022/06/17 07:57:32;;;;;;;;;;;;;;;29.01;46.33;99750.00;5042565;28;20011;-57
2022/06/17 07:59:57;;;;;;;;;;;;;;;29.89;43.51;99747.53;5039258;28;19973;-57
2022/06/17 08:02:23;;;;;;;;;;;;;;;30.13;44.30;99743.38;5042974;28;19924;-57
2022/06/17 08:04:48;;;;;;;;;;;;;;;30.57;42.46;99736.16;5041208;28;19951;-57
2022/06/17 08:07:13;;;;;;;;;;;;;;;30.03;41.85;99744.31;5044562;28;20020;-56
2022/06/17 08:09:38;;;;;;;;;;;;;;;29.56;42.86;99733.13;5041945;28;19956;-57
2022/06/17 08:12:08;;;;;;;;;;;;;;;30.53;42.38;99734.81;5040480;28;19966;-57
2022/06/17 08:14:35;;;;;;;;;;;;;;;30.91;41.18;99729.97;5022024;28;19997;-57
2022/06/17 08:17:00;;;;;;;;;;;;;;;30.88;41.38;99732.13;5041709;28;19920;-58
2022/06/17 08:19:25;;;;;;;;;;;;;;;31.12;41.94;99729.53;5038934;28;19928;-57
2022/06/17 08:21:50;;;;;;;;;;;;;;;30.22;41.23;99723.81;5044319;28;19920;-58
2022/06/17 08:24:16;;;;;;;;;;;;;;;31.12;41.39;99724.19;5024220;28;19978;-57
2022/06/17 08:26:41;;;;;;;;;;;;;;;31.18;40.43;99723.56;5041506;28;19925;-57
2022/06/17 08:29:06;;;;;;;;;;;;;;;30.69;40.18;99723.41;5047843;28;19928;-57
2022/06/17 08:31:31;;;;;;;;;;;;;;;31.54;39.75;99717.91;5049004;28;19952;-57
2022/06/17 08:33:56;;;;;;;;;;;;;;;31.74;39.93;99713.09;5045540;28;19920;-57
2022/06/17 08:36:22;;;;;;;;;;;;;;;31.40;40.42;99707.91;5050127;28;19923;-57
2022/06/17 08:38:51;;;;;;;;;;;;;;;30.83;39.46;99711.31;5027024;28;19921;-57
2022/06/17 08:41:22;;;;;;;;;;;;;;;29.10;42.53;99714.69;5043733;28;19952;-57
2022/06/17 08:43:50;;;;;;;;;;;;;;;30.00;41.57;99711.94;5045974;28;19932;-58
2022/06/17 08:46:36;;;;;;;;;;;;;;;30.84;39.00;99715.66;5043478;28;19927;-59
2022/06/17 08:49:21;;;;;;;;;;;;;;;31.18;37.71;99709.38;5004449;28;19977;-59
2022/06/17 08:52:05;;;;;;;;;;;;;;;31.67;36.86;99718.25;4994787;28;20626;-59
2022/06/17 08:54:33;;;;;;;;;;;;;;;32.79;35.77;99702.28;5046841;28;19921;-58
2022/06/17 08:57:28;;;;;;;;;;;;;;;32.87;34.88;99710.25;5042209;28;19916;-59
2022/06/17 08:59:57;;;;;;;;;;;;;;;33.15;33.90;99717.75;5022784;28;19924;-59
2022/06/17 09:02:28;;;;;;;;;;;;;;;33.15;33.36;99717.75;5046133;28;19925;-59
2022/06/17 09:05:00;;;;;;;;;;;;;;;32.92;34.42;99715.88;5044435;28;20562;-59
2022/06/17 09:07:44;;;;;;;;;;;;;;;33.53;34.92;99720.47;5027644;28;19920;-58
2022/06/17 09:10:16;;;;;;;;;;;;;;;34.18;33.99;99720.88;5045069;28;19921;-58
2022/06/17 09:12:48;;;;;;;;;;;;;;;32.39;32.21;99728.13;5029272;28;20566;-58
2022/06/17 09:15:32;;;;;;;;;;;;;;;31.76;34.61;99726.25;5044371;28;19974;-59
2022/06/17 09:18:03;;;;;;;;;;;;;;;31.73;33.17;99716.75;5046803;28;19987;-59
2022/06/17 09:20:38;;;;;;;;;;;;;;;32.28;33.19;99713.31;5042532;28;19928;-59
2022/06/17 09:23:05;;;;;;;;;;;;;;;32.90;32.53;99704.53;5046799;28;19985;-59
2022/06/17 09:25:56;;;;;;;;;;;;;;;33.01;33.47;99710.50;5044558;28;19970;-59
2022/06/17 09:28:23;;;;;;;;;;;;;;;32.62;32.40;99700.72;5042975;28;19921;-59
2022/06/17 09:31:12;;;;;;;;;;;;;;;33.17;32.48;99697.06;5047526;28;19924;-58
2022/06/17 09:33:42;;;;;;;;;;;;;;;32.32;32.76;99711.16;5031992;28;19920;-59
2022/06/17 09:36:12;;;;;;;;;;;;;;;33.77;30.58;99694.56;5045297;28;19927;-59
2022/06/17 09:38:41;;;;;;;;;;;;;;;32.71;32.03;99705.00;5026122;28;19952;-59
2022/06/17 09:41:07;;;;;;;;;;;;;;;33.50;31.48;99688.75;5026618;28;20631;-59
2022/06/17 09:43:35;;;;;;;;;;;;;;;33.20;31.28;99693.19;5011109;28;19924;-59
2022/06/17 09:46:06;;;;;;;;;;;;;;;33.66;32.04;99693.97;5026718;28;19921;-59
2022/06/17 09:48:31;;;;;;;;;;;;;;;34.64;30.26;99693.91;5025471;28;19968;-58
2022/06/17 09:51:26;;;;;;;;;;;;;;;33.06;32.58;99698.28;5042361;28;20051;-59
2022/06/17 09:53:53;;;;;;;;;;;;;;;33.79;31.76;99693.38;4926558;28;19934;-58
2022/06/17 09:56:24;;;;;;;;;;;;;;;34.30;29.72;99689.97;5046119;28;19909;-58
2022/06/17 09:58:54;;;;;;;;;;;;;;;34.91;29.46;99682.47;5047930;28;19920;-59
2022/06/17 10:01:20;;;;;;;;;;;;;;;35.14;30.56;99689.53;5027021;28;19920;-59
2022/06/17 10:03:45;;;;;;;;;;;;;;;35.65;28.79;99684.00;5025806;28;19994;-58
2022/06/17 10:06:13;;;;;;;;;;;;;;;34.02;29.08;99690.59;5042686;28;20007;-59
2022/06/17 10:08:45;;;;;;;;;;;;;;;34.19;29.73;99685.09;5042761;28;19947;-59
2022/06/17 10:11:26;;;;;;;;;;;;;;;36.07;27.02;99682.19;5026353;28;19928;-59
2022/06/17 10:13:51;;;;;;;;;;;;;;;35.68;28.20;99677.44;5041554;28;19931;-59
2022/06/17 10:19:12;;;;;;;;;;;;;;;36.28;29.02;99683.97;5028691;28;19923;-59
2022/06/17 10:22:12;;;;;;;;;;;;;;;36.31;28.63;99683.59;5043252;28;20365;-59
2022/06/17 10:24:40;;;;;;;;;;;;;;;36.04;28.32;99677.25;4942636;28;19990;-59
2022/06/17 10:27:16;;;;;;;;;;;;;;;35.90;28.04;99672.81;5007416;28;19917;-59
2022/06/17 10:29:46;;;;;;;;;;;;;;;36.38;28.20;99673.72;5024663;28;19924;-59
2022/06/17 10:32:11;;;;;;;;;;;;;;;36.43;27.25;99670.41;5025139;28;19925;-58
2022/06/17 10:34:53;;;;;;;;;;;;;;;34.51;28.92;99674.00;5025227;28;19927;-58
2022/06/17 10:37:18;;;;;;;;;;;;;;;35.74;27.42;99666.75;5024857;28;19927;-59
2022/06/17 10:39:43;;;;;;;;;;;;;;;36.72;27.33;99658.56;5043015;28;19921;-59
2022/06/17 10:42:10;;;;;;;;;;;;;;;36.75;27.74;99660.00;5043707;28;19928;-59
2022/06/17 10:44:35;;;;;;;;;;;;;;;34.79;27.76;99673.31;5028288;28;19921;-59
2022/06/17 10:47:10;;;;;;;;;;;;;;;35.39;28.55;99666.66;5027136;28;19983;-58
2022/06/17 10:49:37;;;;;;;;;;;;;;;36.13;28.08;99664.50;5045785;28;19974;-58
2022/06/17 10:52:03;;;;;;;;;;;;;;;34.26;29.57;99664.63;5040226;28;19920;-58
2022/06/17 10:54:29;;;;;;;;;;;;;;;35.60;29.98;99657.78;5022083;28;20421;-58
2022/06/17 10:56:55;;;;;;;;;;;;;;;36.73;28.42;99648.66;5022024;28;19952;-58
2022/06/17 10:59:33;;;;;;;;;;;;;;;37.55;27.90;99643.97;5024621;28;19943;-58
2022/06/17 11:01:59;;;;;;;;;;;;;;;36.85;27.24;99642.47;5041777;28;19921;-58
2022/06/17 11:04:24;;;;;;;;;;;;;;;37.14;27.72;99640.47;5043606;28;19921;-58
2022/06/17 11:06:51;;;;;;;;;;;;;;;36.74;27.04;99631.50;5042092;28;19978;-58
2022/06/17 11:09:18;;;;;;;;;;;;;;;36.86;27.07;99632.56;5025626;28;19916;-57
2022/06/17 11:12:02;;;;;;;;;;;;;;;37.00;27.61;99620.81;5029735;28;20001;-58
2022/06/17 11:14:46;;;;;;;;;;;;;;;36.68;28.62;99630.47;5026160;28;20020;-58
2022/06/17 11:17:18;;;;;;;;;;;;;;;35.95;28.45;99630.16;5041332;28;21053;-58
2022/06/17 11:19:43;;;;;;;;;;;;;;;36.80;28.84;99619.97;5043584;28;19923;-57
2022/06/17 11:22:16;;;;;;;;;;;;;;;34.55;29.07;99624.44;5023169;28;19917;-58
2022/06/17 11:24:42;;;;;;;;;;;;;;;36.36;28.42;99618.59;5024749;28;20365;-58
2022/06/17 11:27:13;;;;;;;;;;;;;;;37.70;28.47;99623.03;5041142;28;19927;-58
2022/06/17 11:29:42;;;;;;;;;;;;;;;35.66;26.74;99615.97;5040773;28;19959;-58
2022/06/17 11:32:19;;;;;;;;;;;;;;;36.88;27.95;99610.88;5041960;28;19913;-58
2022/06/17 11:34:46;;;;;;;;;;;;;;;36.49;27.11;99615.94;5043883;28;19932;-57
2022/06/17 11:37:14;;;;;;;;;;;;;;;35.90;27.83;99627.25;5020994;28;19932;-58
2022/06/17 11:39:40;;;;;;;;;;;;;;;36.25;28.14;99620.00;5022465;28;19947;-58
2022/06/17 11:42:15;;;;;;;;;;;;;;;37.36;27.17;99616.91;5041869;28;19917;-58
2022/06/17 11:44:57;;;;;;;;;;;;;;;37.56;27.39;99627.63;5025524;28;20374;-58
2022/06/17 11:47:24;;;;;;;;;;;;;;;38.31;27.33;99618.31;5022414;28;20707;-58
2022/06/17 11:49:49;;;;;;;;;;;;;;;38.65;27.60;99615.22;5041858;28;20408;-55
2022/06/17 11:52:33;;;;;;;;;;;;;;;38.55;27.59;99609.50;5043261;28;19921;-58
2022/06/17 11:54:58;;;;;;;;;;;;;;;38.61;26.64;99600.53;5043440;28;19966;-58
2022/06/17 11:57:27;;;;;;;;;;;;;;;38.34;25.44;99596.34;5025928;28;19924;-58
2022/06/17 11:59:53;;;;;;;;;;;;;;;38.16;26.50;99595.22;5023509;28;19943;-58
2022/06/17 12:02:19;;;;;;;;;;;;;;;37.85;25.87;99583.28;5027904;28;20734;-58
2022/06/17 12:04:45;;;;;;;;;;;;;;;38.11;26.26;99580.72;5029400;28;19917;-58
2022/06/17 12:07:30;;;;;;;;;;;;;;;36.25;27.02;99581.66;5027987;28;20381;-57
2022/06/17 12:10:07;;;;;;;;;;;;;;;37.70;26.00;99569.28;5043791;28;20007;-58
2022/06/17 12:12:33;;;;;;;;;;;;;;;38.09;26.14;99567.50;5042707;28;19920;-58
2022/06/17 12:15:08;;;;;;;;;;;;;;;38.87;24.68;99575.28;5030536;28;19923;-58
2022/06/17 12:17:34;;;;;;;;;;;;;;;38.43;26.38;99573.50;5030022;28;20298;-58
2022/06/17 12:19:59;;;;;;;;;;;;;;;38.93;25.59;99579.00;5047139;28;19916;-58
2022/06/17 12:22:40;;;;;;;;;;;;;;;37.75;25.30;99572.19;5028378;28;20801;-57
2022/06/17 12:25:18;;;;;;;;;;;;;;;37.19;26.33;99567.31;5046941;28;19921;-40
2022/06/17 12:27:50;;;;;;;;;;;;;;;36.58;27.83;99576.34;5044437;28;19999;-40
2022/06/17 12:30:20;;;;;;;;;;;;;;;37.19;27.16;99572.69;5027673;28;19920;-40
2022/06/17 12:32:54;;;;;;;;;;;;;;;37.64;27.86;99576.34;5029720;28;19917;-40
2022/06/17 12:35:30;;;;;;;;;;;;;;;35.94;27.71;99577.56;5028913;28;19932;-40
2022/06/17 12:37:58;;;;;;;;;;;;;;;34.74;27.71;99574.88;5028837;28;19921;-40
2022/06/17 12:40:23;;;;;;;;;;;;;;;36.01;28.40;99570.38;5047853;28;19916;-40
2022/06/17 12:42:54;;;;;;;;;;;;;;;37.69;26.65;99556.88;5047841;28;19986;-40
2022/06/17 12:45:27;;;;;;;;;;;;;;;37.53;27.11;99550.09;5045797;28;19951;-40
2022/06/17 12:47:54;;;;;;;;;;;;;;;38.21;26.46;99544.25;5046386;28;19920;-40
2022/06/17 12:53:26;;;;;;;;;;;;;;;38.87;25.76;99548.38;5030019;28;20333;-40
2022/06/17 12:56:04;;;;;;;;;;;;;;;37.51;26.17;99544.09;5043858;28;20799;-40
2022/06/17 12:58:48;;;;;;;;;;;;;;;35.53;27.03;99562.28;5026709;28;19951;-40
2022/06/17 13:01:16;;;;;;;;;;;;;;;35.94;28.03;99556.13;5043571;28;19939;-40
2022/06/17 13:03:51;;;;;;;;;;;;;;;38.01;25.75;99546.25;5027556;28;20551;-40
2022/06/17 13:06:19;;;;;;;;;;;;;;;35.91;26.64;99548.50;5044800;28;19973;-40
2022/06/17 13:08:48;;;;;;;;;;;;;;;36.18;26.11;99539.53;5029889;28;19924;-40